Time;durP1;ratioP1;P1;durP2;ratioP2;P2;SDS_P1;SDS_P2;PMS_P1;PMS_P2;Temp;Humidity;BMP_temperature;BMP_pressure;BME280_temperature;BME280_humidity;BME280_pressure;Samples;Min_cycle;Max_cycle;Signal;HPM_P1;HPM_P2
2023/01/17 00:02:29;;;;;;;14.40;10.40;;;;;;;4.16;74.66;95660.42;110117;1245;69893;-72
2023/01/17 00:10:39;;;;;;;14.00;9.60;;;;;;;4.10;75.57;95676.70;110111;1245;71057;-72
2023/01/17 00:13:09;;;;;;;12.70;8.40;;;;;;;4.09;75.31;95680.42;110106;1244;68300;-72
2023/01/17 00:15:38;;;;;;;11.80;8.10;;;;;;;4.09;75.58;95684.37;110115;1246;69307;-72
2023/01/17 00:18:08;;;;;;;12.40;8.40;;;;;;;4.08;75.06;95674.59;110114;1241;58936;-72
2023/01/17 00:26:18;;;;;;;10.10;7.20;;;;;;;4.06;74.70;95669.20;110137;1243;68915;-72
2023/01/17 01:34:27;;;;;;;11.40;8.20;;;;;;;3.79;76.46;95600.27;110104;1244;69269;-72
2023/01/17 01:36:57;;;;;;;11.90;8.00;;;;;;;3.81;76.49;95587.69;110092;1244;69368;-72
2023/01/17 01:39:27;;;;;;;14.40;8.90;;;;;;;3.83;76.72;95579.63;110101;1242;58922;-72
2023/01/17 01:41:59;;;;;;;10.30;8.10;;;;;;;3.84;76.97;95574.05;110090;1245;58882;-72
2023/01/17 01:44:42;;;;;;;;;;;;;;;3.85;76.60;95568.65;110101;1245;68929;-72
2023/01/17 01:47:29;;;;;;;12.70;8.40;;;;;;;3.86;76.55;95559.92;110064;1245;69840;-72
2023/01/17 01:50:04;;;;;;;12.90;9.30;;;;;;;3.86;77.06;95552.35;110100;1241;69235;-72
2023/01/17 01:52:38;;;;;;;12.00;8.20;;;;;;;3.84;77.30;95556.81;110082;1245;59020;-72
2023/01/17 01:55:19;;;;;;;10.60;7.30;;;;;;;3.83;76.95;95562.05;110232;1244;59010;-73
2023/01/17 01:57:53;;;;;;;11.90;7.60;;;;;;;3.83;76.36;95564.80;110108;1245;70255;-73
2023/01/17 02:00:32;;;;;;;12.40;8.10;;;;;;;3.84;75.87;95551.64;110071;1244;69117;-73
2023/01/17 02:03:23;;;;;;;12.80;7.90;;;;;;;3.87;75.79;95532.61;110180;1244;68342;-73
2023/01/17 02:05:53;;;;;;;10.70;7.70;;;;;;;3.88;75.92;95528.38;110031;1249;58908;-72
2023/01/17 02:08:23;;;;;;;;;;;;;;;3.91;75.99;95534.78;110089;1251;58928;-72
2023/01/17 02:10:54;;;;;;;11.10;6.80;;;;;;;3.91;75.56;95536.27;110235;1245;69561;-73
2023/01/17 02:13:25;;;;;;;10.00;7.10;;;;;;;3.94;74.47;95533.33;110237;1245;67850;-73
2023/01/17 02:16:17;;;;;;;10.00;6.00;;;;;;;3.97;74.69;95536.52;110080;1244;68433;-73
2023/01/17 02:19:06;;;;;;;9.20;6.20;;;;;;;3.98;74.13;95536.11;110110;1242;58944;-73
2023/01/17 02:21:42;;;;;;;9.50;6.70;;;;;;;3.98;74.38;95539.89;110090;1245;58943;-72
2023/01/17 02:24:21;;;;;;;8.30;5.70;;;;;;;3.99;73.91;95539.33;110123;1241;69872;-72
2023/01/17 02:27:15;;;;;;;9.60;6.70;;;;;;;3.99;74.07;95525.15;110099;1244;68685;-73
2023/01/17 02:29:56;;;;;;;11.80;7.00;;;;;;;3.99;74.02;95528.91;110067;1242;69104;-73
2023/01/17 02:32:29;;;;;;;11.80;7.00;;;;;;;4.00;74.11;95536.61;110097;1245;58963;-72
2023/01/17 02:35:19;;;;;;;11.20;7.40;;;;;;;4.01;73.74;95536.33;110084;1244;58906;-72
2023/01/17 02:38:02;;;;;;;10.60;7.20;;;;;;;4.03;73.78;95530.36;110061;1245;71563;-72
2023/01/17 02:40:43;;;;;;;11.60;7.30;;;;;;;4.04;73.75;95531.14;110214;1244;69085;-73
2023/01/17 02:43:16;;;;;;;10.30;6.90;;;;;;;4.03;73.83;95529.34;110191;1245;69237;-72
2023/01/17 02:45:45;;;;;;;9.40;6.00;;;;;;;4.00;73.68;95529.90;110095;1243;58867;-73
2023/01/17 02:48:21;;;;;;;9.80;7.00;;;;;;;3.98;73.71;95533.67;110103;1244;58892;-73
2023/01/17 02:51:10;;;;;;;9.40;6.30;;;;;;;3.96;73.22;95532.23;110076;1242;70577;-73
2023/01/17 02:53:52;;;;;;;10.90;7.50;;;;;;;3.95;73.73;95536.52;110076;1245;69226;-73
2023/01/17 02:56:45;;;;;;;9.60;6.80;;;;;;;3.94;74.02;95536.59;110030;1244;68511;-73
2023/01/17 02:59:25;;;;;;;9.70;6.60;;;;;;;3.93;74.00;95533.01;110051;1244;58899;-72
2023/01/17 03:02:11;;;;;;;9.70;7.10;;;;;;;3.93;74.25;95532.86;110105;1245;58955;-73
2023/01/17 03:04:51;;;;;;;9.70;6.20;;;;;;;3.91;74.33;95535.30;110193;1244;70560;-73
2023/01/17 03:07:25;;;;;;;8.80;6.60;;;;;;;3.91;73.09;95533.39;110226;1243;68487;-73
2023/01/17 03:09:59;;;;;;;9.30;6.60;;;;;;;3.93;73.86;95533.03;110050;1245;69265;-73
2023/01/17 03:12:31;;;;;;;9.40;6.60;;;;;;;3.92;74.09;95536.20;110057;1244;59210;-71
2023/01/17 03:15:00;;;;;;;8.00;5.60;;;;;;;3.94;73.26;95537.11;110093;1244;58959;-71
2023/01/17 03:17:32;;;;;;;7.20;5.70;;;;;;;3.95;72.86;95531.66;110071;1245;71152;-72
2023/01/17 03:20:03;;;;;;;7.80;5.50;;;;;;;3.97;73.69;95533.43;110101;1245;69251;-72
2023/01/17 03:22:35;;;;;;;8.80;6.30;;;;;;;3.98;73.31;95527.86;110111;1245;69298;-73
2023/01/17 03:25:06;;;;;;;7.00;5.00;;;;;;;4.01;73.63;95525.48;110068;1245;58888;-71
2023/01/17 03:27:35;;;;;;;;;;;;;;;4.07;73.29;95527.86;110071;1245;58899;-72
2023/01/17 03:30:08;;;;;;;7.70;5.70;;;;;;;4.09;72.75;95525.92;110100;1245;69831;-72
2023/01/17 03:32:38;;;;;;;7.70;4.90;;;;;;;4.18;72.15;95529.09;110081;1244;69264;-72
2023/01/17 03:35:08;;;;;;;6.20;4.70;;;;;;;4.30;71.58;95531.95;110071;1244;69914;-72
2023/01/17 03:37:39;;;;;;;6.80;5.30;;;;;;;4.41;70.52;95536.05;110123;1245;58898;-72
2023/01/17 03:40:10;;;;;;;7.50;5.70;;;;;;;4.55;69.73;95541.69;110130;1244;58878;-71
2023/01/17 03:42:40;;;;;;;7.40;5.40;;;;;;;4.71;68.57;95541.80;110033;1245;71030;-73
2023/01/17 03:45:10;;;;;;;7.70;5.20;;;;;;;4.82;68.79;95539.86;110067;1245;69228;-74
2023/01/17 03:47:39;;;;;;;6.20;5.10;;;;;;;4.89;69.11;95541.39;110164;1244;69361;-73
2023/01/17 03:50:09;;;;;;;7.60;5.20;;;;;;;4.95;68.42;95535.94;110071;1245;58908;-73
2023/01/17 03:52:39;;;;;;;7.40;5.00;;;;;;;5.02;68.15;95533.45;110165;1244;58940;-73
2023/01/17 03:55:09;;;;;;;8.20;6.20;;;;;;;5.07;68.51;95538.92;110086;1242;70621;-72
2023/01/17 03:57:39;;;;;;;;;;;;;;;5.08;69.03;95536.63;110125;1245;69209;-73
2023/01/17 04:00:10;;;;;;;7.30;5.10;;;;;;;5.04;69.58;95535.34;110134;1244;69204;-72
2023/01/17 04:02:40;;;;;;;7.10;5.10;;;;;;;5.01;70.50;95532.03;110107;1245;58907;-73
2023/01/17 04:05:11;;;;;;;8.00;5.60;;;;;;;4.98;70.38;95531.57;110248;1244;59017;-73
2023/01/17 04:07:41;;;;;;;7.70;5.20;;;;;;;4.97;70.56;95530.63;110094;1241;70397;-73
2023/01/17 04:10:11;;;;;;;7.30;4.80;;;;;;;4.94;71.03;95534.29;110110;1244;69086;-74
2023/01/17 04:12:41;;;;;;;6.80;5.10;;;;;;;4.91;71.27;95532.09;110099;1245;68626;-73
2023/01/17 04:15:11;;;;;;;6.20;5.00;;;;;;;4.89;71.84;95532.09;110101;1251;58849;-73
2023/01/17 04:17:41;;;;;;;8.50;5.70;;;;;;;4.87;72.78;95541.27;110147;1244;58845;-72
2023/01/17 04:20:27;;;;;;;;;;;;;;;4.83;73.39;95544.31;110214;1244;69857;-72
2023/01/17 04:22:56;;;;;;;8.40;5.80;;;;;;;4.78;72.80;95550.54;110104;1244;69257;-73
2023/01/17 04:25:26;;;;;;;7.80;5.80;;;;;;;4.74;73.04;95556.38;110121;1244;69420;-72
2023/01/17 04:27:56;;;;;;;;;;;;;;;4.72;73.42;95557.95;109991;1243;58864;-72
2023/01/17 04:30:27;;;;;;;8.90;5.50;;;;;;;4.70;73.05;95566.74;109991;1246;58925;-72
2023/01/17 04:32:57;;;;;;;8.00;5.50;;;;;;;4.68;72.96;95568.09;110127;1245;70823;-73
2023/01/17 04:35:30;;;;;;;8.40;5.60;;;;;;;4.66;72.73;95571.17;110090;1241;69828;-73
2023/01/17 04:38:00;;;;;;;8.40;5.80;;;;;;;4.65;72.93;95568.48;110034;1241;69656;-73
2023/01/17 04:40:30;;;;;;;9.60;6.70;;;;;;;4.65;73.18;95571.48;110138;1242;58988;-73
2023/01/17 04:43:00;;;;;;;9.30;6.90;;;;;;;4.63;73.75;95573.20;110253;1245;58897;-73
2023/01/17 04:45:29;;;;;;;8.80;5.90;;;;;;;4.60;74.47;95585.98;110097;1244;70801;-71
2023/01/17 04:48:04;;;;;;;9.40;6.10;;;;;;;4.53;75.01;95591.71;110117;1245;68076;-72
2023/01/17 04:50:33;;;;;;;6.90;5.50;;;;;;;4.46;75.91;95597.23;110088;1244;69413;-72
2023/01/17 04:53:03;;;;;;;8.00;5.50;;;;;;;4.42;76.69;95596.32;110052;1246;58925;-72
2023/01/17 04:55:31;;;;;;;9.00;6.20;;;;;;;4.39;77.13;95596.05;110141;1244;59022;-73
2023/01/17 04:58:01;;;;;;;8.80;6.00;;;;;;;4.36;78.42;95595.25;110104;1244;70221;-73
2023/01/17 05:00:30;;;;;;;8.80;6.20;;;;;;;4.33;79.90;95593.59;110116;1244;69678;-73
2023/01/17 05:03:00;;;;;;;9.70;7.20;;;;;;;4.29;80.88;95591.62;110112;1244;68303;-72
2023/01/17 05:05:29;;;;;;;23.30;14.90;;;;;;;4.26;80.93;95593.98;110102;1244;58953;-74
2023/01/17 05:07:58;;;;;;;17.90;13.10;;;;;;;4.23;81.55;95592.14;110126;1246;58909;-73
2023/01/17 05:10:28;;;;;;;11.80;8.10;;;;;;;4.19;82.21;95589.28;110115;1244;71124;-73
2023/01/17 05:12:59;;;;;;;11.90;9.70;;;;;;;4.17;82.90;95591.52;110111;1244;69178;-72
2023/01/17 05:15:29;;;;;;;12.10;10.80;;;;;;;4.14;82.00;95587.09;110083;1244;67398;-72
2023/01/17 05:17:59;;;;;;;12.70;8.80;;;;;;;4.12;82.55;95588.13;110101;1244;59745;-72
2023/01/17 05:20:28;;;;;;;9.70;6.30;;;;;;;4.09;83.70;95588.34;110111;1244;59743;-72
2023/01/17 05:22:57;;;;;;;10.20;6.90;;;;;;;4.07;82.83;95583.48;110113;1245;71338;-73
2023/01/17 05:25:30;;;;;;;9.80;7.10;;;;;;;4.05;83.91;95577.29;110125;1244;69247;-72
2023/01/17 05:27:59;;;;;;;10.80;7.10;;;;;;;4.02;85.31;95574.54;110127;1244;69848;-72
2023/01/17 05:30:30;;;;;;;10.10;7.40;;;;;;;4.00;87.16;95576.27;110100;1244;59688;-72
2023/01/17 05:33:00;;;;;;;10.80;7.30;;;;;;;3.97;87.61;95574.76;110144;1244;59780;-72
2023/01/17 05:35:33;;;;;;;9.70;7.10;;;;;;;3.94;89.18;95571.74;110060;1244;72064;-72
2023/01/17 05:38:03;;;;;;;11.00;7.70;;;;;;;3.90;89.70;95568.11;110111;1244;69707;-72
2023/01/17 05:40:33;;;;;;;12.20;8.60;;;;;;;3.86;89.68;95561.64;110059;1244;69271;-72
2023/01/17 05:43:03;;;;;;;11.00;8.30;;;;;;;3.80;91.47;95555.20;110110;1242;59709;-72
2023/01/17 05:45:33;;;;;;;14.70;10.10;;;;;;;3.74;93.02;95550.98;110121;1244;59664;-72
2023/01/17 05:48:02;;;;;;;14.70;10.90;;;;;;;3.69;93.60;95546.23;110126;1245;71407;-72
2023/01/17 05:50:34;;;;;;;13.20;9.80;;;;;;;3.64;92.89;95541.23;110092;1245;69386;-72
2023/01/17 05:53:09;;;;;;;12.30;9.10;;;;;;;3.62;95.22;95545.91;110126;1244;69306;-73
2023/01/17 05:55:39;;;;;;;13.10;9.30;;;;;;;3.59;95.89;95558.70;110099;1244;59715;-73
2023/01/17 05:58:18;;;;;;;13.20;9.50;;;;;;;3.57;94.33;95561.56;110086;1244;59645;-73
2023/01/17 06:00:48;;;;;;;18.60;12.20;;;;;;;3.56;94.62;95567.67;110090;1245;71427;-73
2023/01/17 06:03:17;;;;;;;15.10;10.70;;;;;;;3.56;93.15;95559.80;110101;1244;70222;-72
2023/01/17 06:05:46;;;;;;;12.20;9.40;;;;;;;3.54;94.84;95555.58;110061;1244;69335;-72
2023/01/17 06:08:16;;;;;;;15.40;9.60;;;;;;;3.51;96.75;95554.41;110080;1244;59681;-72
2023/01/17 06:10:45;;;;;;;12.10;8.50;;;;;;;3.48;96.51;95554.84;110079;1244;59681;-72
2023/01/17 06:13:19;;;;;;;12.00;8.10;;;;;;;3.45;97.93;95551.66;110084;1245;70427;-72
2023/01/17 06:15:48;;;;;;;12.10;7.90;;;;;;;3.38;98.88;95553.86;110075;1244;68828;-73
2023/01/17 06:18:17;;;;;;;14.50;9.60;;;;;;;3.33;99.69;95563.21;110081;1244;70402;-74
2023/01/17 06:20:53;;;;;;;11.70;8.80;;;;;;;3.28;99.63;95567.51;110100;1244;59708;-73
2023/01/17 06:23:23;;;;;;;15.10;10.00;;;;;;;3.25;99.71;95566.18;110091;1244;59636;-73
2023/01/17 06:25:52;;;;;;;10.60;7.20;;;;;;;3.23;99.54;95564.23;110152;1244;72370;-73
2023/01/17 06:28:23;;;;;;;12.00;8.40;;;;;;;3.24;99.83;95581.43;110096;1245;69190;-73
2023/01/17 06:30:51;;;;;;;11.30;8.10;;;;;;;3.26;99.91;95579.05;110100;1245;69891;-73
2023/01/17 06:33:20;;;;;;;11.20;8.40;;;;;;;3.29;99.83;95579.80;110114;1244;60193;-72
2023/01/17 06:35:51;;;;;;;13.70;8.40;;;;;;;3.33;99.58;95582.64;110144;1244;59694;-74
2023/01/17 06:38:20;;;;;;;21.40;12.90;;;;;;;3.36;99.05;95584.86;110109;1244;70891;-74
2023/01/17 06:40:49;;;;;;;17.80;12.20;;;;;;;3.38;98.82;95589.83;110125;1243;69310;-73
2023/01/17 06:43:18;;;;;;;16.90;12.00;;;;;;;3.40;98.89;95591.56;110116;1244;69939;-73
2023/01/17 06:45:47;;;;;;;18.50;11.30;;;;;;;3.44;99.26;95590.32;110100;1244;60150;-73
2023/01/17 06:48:19;;;;;;;14.90;10.40;;;;;;;3.47;99.95;95584.69;110259;1244;59665;-73
2023/01/17 06:50:48;;;;;;;14.70;9.10;;;;;;;3.52;100.00;95579.70;110075;1244;71979;-73
2023/01/17 06:53:17;;;;;;;14.10;9.60;;;;;;;3.57;100.00;95573.27;110093;1241;69643;-73
2023/01/17 06:55:46;;;;;;;12.10;8.80;;;;;;;3.63;99.07;95575.46;110106;1244;69926;-72
2023/01/17 06:58:15;;;;;;;12.00;7.90;;;;;;;3.70;99.50;95563.91;110088;1244;59701;-74
2023/01/17 07:00:44;;;;;;;11.20;7.70;;;;;;;3.77;98.70;95556.80;110094;1244;59679;-72
2023/01/17 07:03:22;;;;;;;10.10;7.30;;;;;;;3.86;97.87;95556.49;110085;1244;71975;-72
2023/01/17 07:05:51;;;;;;;8.50;6.80;;;;;;;3.98;97.43;95559.52;110128;1244;69246;-72
2023/01/17 07:08:21;;;;;;;11.60;7.20;;;;;;;4.12;97.47;95554.02;110077;1244;70223;-73
2023/01/17 07:11:02;;;;;;;10.50;7.30;;;;;;;4.24;98.08;95559.96;110146;1244;60068;-73
2023/01/17 07:13:35;;;;;;;14.60;9.40;;;;;;;4.42;99.06;95569.46;110169;1244;60144;-74
2023/01/17 07:16:06;;;;;;;14.10;8.10;;;;;;;4.73;98.61;95569.64;110185;1243;71369;-74
2023/01/17 07:18:35;;;;;;;12.60;7.10;;;;;;;5.00;97.36;95560.90;110136;1244;69211;-73
2023/01/17 07:21:10;;;;;;;11.70;7.20;;;;;;;5.15;96.64;95552.95;110110;1244;69747;-73
2023/01/17 07:23:40;;;;;;;10.10;7.50;;;;;;;5.24;95.95;95566.27;110052;1244;59754;-73
2023/01/17 07:26:09;;;;;;;9.70;6.90;;;;;;;5.24;95.80;95570.91;110100;1245;59714;-73
2023/01/17 07:28:37;;;;;;;8.30;5.90;;;;;;;5.28;95.11;95567.51;110153;1245;71980;-73
2023/01/17 07:31:07;;;;;;;7.70;5.60;;;;;;;5.30;94.52;95565.91;110078;1244;69885;-73
2023/01/17 07:33:36;;;;;;;10.50;7.00;;;;;;;5.32;93.98;95561.94;110101;1244;69898;-73
2023/01/17 07:36:06;;;;;;;14.20;10.00;;;;;;;5.33;93.76;95561.33;110094;1244;59758;-73
2023/01/17 07:38:35;;;;;;;;;;;;;;;5.32;93.81;95569.17;110091;1244;59633;-74
2023/01/17 07:41:04;;;;;;;14.20;9.50;;;;;;;5.31;94.29;95572.88;110250;1241;71361;-74
2023/01/17 07:43:34;;;;;;;11.60;8.20;;;;;;;5.32;94.76;95576.27;110033;1245;69217;-74
2023/01/17 07:46:06;;;;;;;13.10;9.00;;;;;;;5.34;95.37;95583.02;110087;1242;69862;-74
2023/01/17 07:48:35;;;;;;;10.10;7.60;;;;;;;5.35;95.46;95592.48;110083;1245;59776;-74
2023/01/17 07:51:05;;;;;;;10.00;6.40;;;;;;;5.36;94.39;95586.70;110263;1244;59746;-74
2023/01/17 07:53:34;;;;;;;6.70;5.30;;;;;;;5.34;93.89;95585.45;110090;1243;71297;-74
2023/01/17 07:56:06;;;;;;;7.50;5.90;;;;;;;5.32;93.60;95591.83;110108;1244;69219;-74
2023/01/17 07:58:35;;;;;;;8.40;5.80;;;;;;;5.30;94.18;95604.45;110084;1241;69109;-74
2023/01/17 08:01:08;;;;;;;15.10;10.70;;;;;;;5.30;93.93;95613.45;110099;1244;59750;-75
2023/01/17 08:03:41;;;;;;;9.50;7.00;;;;;;;5.32;93.39;95609.31;110107;1241;59711;-71
2023/01/17 08:06:22;;;;;;;10.60;7.70;;;;;;;5.40;93.01;95607.97;110084;1241;72061;-71
2023/01/17 08:08:55;;;;;;;11.40;8.60;;;;;;;5.44;93.21;95611.77;110114;1244;69419;-71
2023/01/17 08:11:25;;;;;;;8.40;6.30;;;;;;;5.47;93.09;95616.52;110104;1244;69682;-71
2023/01/17 08:13:58;;;;;;;8.50;6.20;;;;;;;5.50;92.89;95623.36;110071;1245;59668;-71
2023/01/17 08:16:28;;;;;;;11.60;6.80;;;;;;;5.51;92.74;95628.83;110076;1244;59695;-71
2023/01/17 08:18:57;;;;;;;10.00;8.00;;;;;;;5.53;92.39;95627.99;110084;1244;72349;-71
2023/01/17 08:21:27;;;;;;;12.20;8.60;;;;;;;5.53;92.46;95641.59;110101;1244;69709;-71
2023/01/17 08:23:55;;;;;;;10.20;7.50;;;;;;;5.53;92.52;95642.61;110118;1244;68541;-71
2023/01/17 08:26:26;;;;;;;9.50;6.80;;;;;;;5.54;93.09;95640.83;110089;1244;59670;-71
2023/01/17 08:28:59;;;;;;;8.80;6.30;;;;;;;5.56;92.85;95638.62;110096;1244;59757;-71
2023/01/17 08:31:33;;;;;;;8.70;6.20;;;;;;;5.57;92.75;95636.65;110144;1245;71466;-71
2023/01/17 08:34:03;;;;;;;8.50;6.30;;;;;;;5.58;92.71;95636.87;110117;1242;69841;-71
2023/01/17 08:36:32;;;;;;;6.80;4.90;;;;;;;5.62;92.32;95633.96;110088;1244;69279;-70
2023/01/17 08:39:01;;;;;;;6.90;5.30;;;;;;;5.66;91.81;95633.71;110121;1242;59671;-70
2023/01/17 08:41:31;;;;;;;8.90;5.90;;;;;;;5.66;91.74;95635.23;110102;1244;59636;-71
2023/01/17 08:43:59;;;;;;;9.50;7.10;;;;;;;5.67;92.24;95635.17;110087;1244;71397;-71
2023/01/17 08:46:29;;;;;;;8.20;6.10;;;;;;;5.67;92.85;95635.80;110088;1246;69449;-70
2023/01/17 08:49:01;;;;;;;9.40;6.00;;;;;;;5.69;92.81;95636.73;110104;1241;69731;-71
2023/01/17 08:51:31;;;;;;;;;;;;;;;5.69;94.79;95640.34;110159;1244;59759;-71
2023/01/17 08:54:00;;;;;;;;;;;;;;;5.69;94.71;95654.23;110149;1242;59755;-71
2023/01/17 08:56:29;;;;;;;6.70;5.60;;;;;;;5.67;94.93;95668.03;110105;1241;71313;-71
2023/01/17 08:58:58;;;;;;;9.20;6.60;;;;;;;5.68;93.97;95672.23;110146;1244;69203;-70
2023/01/17 09:01:27;;;;;;;7.80;5.60;;;;;;;5.67;95.12;95679.20;110046;1244;69566;-71
2023/01/17 09:03:56;;;;;;;7.50;5.40;;;;;;;5.68;94.66;95687.96;110081;1244;59750;-71
2023/01/17 09:06:25;;;;;;;9.10;5.50;;;;;;;5.68;95.35;95692.44;110109;1244;59698;-71
2023/01/17 09:08:54;;;;;;;6.80;5.70;;;;;;;5.66;96.26;95699.89;110032;1245;72078;-71
2023/01/17 09:11:22;;;;;;;7.40;5.50;;;;;;;5.58;97.96;95709.66;110082;1244;69217;-71
2023/01/17 09:13:51;;;;;;;7.80;5.10;;;;;;;5.50;98.69;95720.44;110079;1243;69062;-71
2023/01/17 09:16:20;;;;;;;9.40;7.00;;;;;;;5.49;98.27;95723.16;110097;1242;59708;-71
2023/01/17 09:18:54;;;;;;;9.40;6.90;;;;;;;5.42;98.37;95723.55;110104;1244;59683;-71
2023/01/17 09:21:23;;;;;;;12.50;8.40;;;;;;;5.33;99.26;95727.73;110073;1245;71651;-72
2023/01/17 09:23:53;;;;;;;10.70;8.10;;;;;;;5.28;99.41;95732.44;110091;1244;69700;-72
2023/01/17 09:26:22;;;;;;;;;;;;;;;5.28;99.00;95730.66;110115;1244;69904;-72
2023/01/17 09:28:52;;;;;;;9.60;6.60;;;;;;;5.29;99.47;95727.48;110095;1244;59747;-72
2023/01/17 09:31:22;;;;;;;13.40;8.30;;;;;;;5.33;98.90;95717.66;110139;1244;59671;-72
2023/01/17 09:33:52;;;;;;;9.40;6.80;;;;;;;5.37;98.07;95706.63;110089;1245;72589;-72
2023/01/17 09:36:21;;;;;;;16.10;11.30;;;;;;;5.43;97.79;95697.87;110087;1244;68565;-72
2023/01/17 09:38:56;;;;;;;16.40;11.60;;;;;;;5.49;98.73;95693.94;110103;1244;69478;-72
2023/01/17 09:41:30;;;;;;;20.80;15.00;;;;;;;5.57;98.22;95686.36;109733;1244;431447;-72
2023/01/17 09:43:59;;;;;;;16.10;12.60;;;;;;;5.66;97.93;95675.68;110117;1244;59692;-72
2023/01/17 09:46:39;;;;;;;13.00;10.20;;;;;;;5.73;97.75;95675.29;110116;1244;71406;-72
2023/01/17 09:49:13;;;;;;;9.40;7.10;;;;;;;5.79;96.93;95670.81;109956;1245;68296;-72
2023/01/17 09:51:43;;;;;;;8.80;6.40;;;;;;;5.83;96.08;95661.64;109877;1245;69725;-71
2023/01/17 09:54:40;;;;;;;13.70;7.80;;;;;;;5.85;95.44;95657.48;109788;1245;59754;-72
2023/01/17 09:57:46;;;;;;;9.90;7.30;;;;;;;5.87;95.53;95675.35;109834;1246;59712;-71
2023/01/17 10:00:33;;;;;;;8.80;6.30;;;;;;;5.86;95.58;95682.02;109785;1245;71779;-72
2023/01/17 10:03:31;;;;;;;7.50;5.90;;;;;;;5.86;94.78;95681.81;110078;1244;69207;-72
2023/01/17 10:06:34;;;;;;;8.70;5.60;;;;;;;5.86;94.83;95683.69;109992;1246;69889;-74
2023/01/17 10:09:37;;;;;;;7.90;6.10;;;;;;;5.85;94.23;95688.95;110067;1244;59751;-71
2023/01/17 10:12:30;;;;;;;12.10;7.50;;;;;;;5.84;94.37;95690.66;110057;1244;59701;-71
2023/01/17 10:15:18;;;;;;;11.40;6.80;;;;;;;5.80;94.48;95689.78;109951;1245;71899;-72
2023/01/17 10:18:09;;;;;;;8.50;6.20;;;;;;;5.77;94.49;95692.05;109878;1244;69869;-71
2023/01/17 10:21:09;;;;;;;9.00;6.60;;;;;;;5.74;94.33;95692.11;109832;1244;69260;-73
2023/01/17 10:24:03;;;;;;;10.90;6.40;;;;;;;5.71;93.63;95693.48;109952;1244;59729;-73
2023/01/17 10:26:33;;;;;;;8.50;6.40;;;;;;;5.72;93.67;95693.02;109894;1243;59718;-72
2023/01/17 10:29:13;;;;;;;8.40;6.40;;;;;;;5.75;93.74;95697.95;109884;1244;71795;-73
2023/01/17 10:31:58;;;;;;;8.00;6.10;;;;;;;5.84;93.00;95705.70;110027;1245;69020;-71
2023/01/17 10:34:40;;;;;;;8.50;6.90;;;;;;;5.97;92.98;95717.98;109856;1243;68859;-71
2023/01/17 10:37:15;;;;;;;9.10;7.10;;;;;;;6.08;92.92;95728.96;109850;1245;59763;-72
2023/01/17 10:39:46;;;;;;;8.40;6.20;;;;;;;6.09;93.23;95722.84;110075;1245;59688;-72
2023/01/17 10:42:27;;;;;;;8.70;6.10;;;;;;;6.14;93.22;95708.76;109820;1242;71699;-72
2023/01/17 10:44:56;;;;;;;9.80;6.70;;;;;;;6.22;93.01;95708.31;109930;1244;68609;-72
2023/01/17 10:47:28;;;;;;;8.60;7.10;;;;;;;6.25;92.72;95706.35;109995;1251;68918;-71
2023/01/17 10:49:58;;;;;;;9.10;6.90;;;;;;;6.29;92.63;95700.98;109928;1244;59653;-73
2023/01/17 10:52:32;;;;;;;9.50;6.60;;;;;;;6.33;92.26;95700.16;109839;1244;59633;-72
2023/01/17 10:55:11;;;;;;;7.50;5.90;;;;;;;6.35;91.17;95702.73;109932;1244;71786;-72
2023/01/17 10:57:42;;;;;;;9.10;6.50;;;;;;;6.38;90.83;95706.10;109916;1243;69205;-73
2023/01/17 11:00:29;;;;;;;8.80;6.20;;;;;;;6.42;90.90;95712.55;109814;1244;69902;-73
2023/01/17 11:02:59;;;;;;;9.40;7.50;;;;;;;6.47;90.71;95702.61;109859;1244;59764;-72
2023/01/17 11:05:30;;;;;;;8.80;6.80;;;;;;;6.54;90.49;95699.42;109981;1245;59698;-74
2023/01/17 11:08:12;;;;;;;9.80;7.00;;;;;;;6.67;90.42;95697.61;110058;1243;70446;-72
2023/01/17 11:10:47;;;;;;;8.90;6.60;;;;;;;7.13;89.84;95702.58;110048;1245;68557;-74
2023/01/17 11:13:33;;;;;;;9.50;6.60;;;;;;;8.37;88.98;95703.17;110038;1245;69131;-75
2023/01/17 11:16:07;;;;;;;6.60;5.50;;;;;;;10.26;81.52;95706.73;110052;1244;59760;-74
2023/01/17 11:18:39;;;;;;;6.80;5.00;;;;;;;11.52;69.36;95700.23;110066;1244;59698;-74
2023/01/17 11:21:13;;;;;;;6.90;5.10;;;;;;;12.45;67.40;95701.48;110049;1243;71344;-74
2023/01/17 11:23:50;;;;;;;5.60;4.40;;;;;;;13.38;66.57;95697.13;110100;1245;69237;-73
2023/01/17 11:26:25;;;;;;;5.40;4.60;;;;;;;13.81;66.53;95699.98;110050;1243;69090;-74
2023/01/17 11:29:12;;;;;;;5.90;4.50;;;;;;;13.72;67.33;95695.77;109938;1245;59744;-73
2023/01/17 11:31:41;;;;;;;6.40;5.00;;;;;;;13.40;66.78;95695.20;109934;1246;59695;-73
2023/01/17 11:34:15;;;;;;;5.20;4.40;;;;;;;12.97;64.79;95690.18;109842;1244;71978;-75
2023/01/17 11:36:44;;;;;;;5.20;4.30;;;;;;;12.51;64.10;95683.35;110055;1242;67459;-73
2023/01/17 11:39:18;;;;;;;6.50;4.50;;;;;;;12.30;63.04;95680.06;109945;1244;69341;-72
2023/01/17 11:41:47;;;;;;;6.90;5.30;;;;;;;12.02;63.81;95674.92;109866;1244;59767;-72
2023/01/17 11:44:29;;;;;;;4.70;4.00;;;;;;;11.72;64.15;95674.96;109866;1244;59631;-74
2023/01/17 11:47:13;;;;;;;5.00;4.10;;;;;;;11.40;65.01;95668.86;110091;1244;71423;-73
2023/01/17 11:49:44;;;;;;;4.30;3.30;;;;;;;11.55;63.20;95669.09;109857;1245;69815;-71
2023/01/17 11:52:31;;;;;;;4.20;3.60;;;;;;;12.27;61.98;95667.09;110074;1245;69067;-72
2023/01/17 11:54:59;;;;;;;4.20;3.00;;;;;;;13.51;59.93;95661.88;110065;1244;59768;-73
2023/01/17 11:57:32;;;;;;;4.00;2.50;;;;;;;14.83;57.54;95651.23;110026;1245;59750;-71
2023/01/17 12:00:24;;;;;;;3.00;2.30;;;;;;;15.83;51.98;95653.17;110057;1244;72160;-69
2023/01/17 12:03:13;;;;;;;3.80;2.70;;;;;;;16.24;51.31;95644.21;109905;1244;69719;-73
2023/01/17 12:05:55;;;;;;;4.50;2.70;;;;;;;16.80;49.31;95634.35;110033;1245;69789;-71
2023/01/17 12:08:50;;;;;;;4.20;2.70;;;;;;;16.77;47.80;95630.85;109903;1245;59709;-72
2023/01/17 12:11:25;;;;;;;3.40;2.60;;;;;;;16.47;47.99;95645.65;109910;1243;59672;-72
2023/01/17 12:14:11;;;;;;;4.60;3.20;;;;;;;15.51;49.22;95638.98;110155;1245;71231;-68
2023/01/17 12:17:01;;;;;;;3.60;3.00;;;;;;;14.52;50.88;95620.86;110050;1244;69657;-72
2023/01/17 12:19:45;;;;;;;4.30;3.10;;;;;;;13.63;53.79;95629.78;109931;1245;70092;-72
2023/01/17 12:22:25;;;;;;;3.40;2.60;;;;;;;13.91;53.78;95628.84;110071;1244;59736;-71
2023/01/17 12:25:05;;;;;;;4.20;3.00;;;;;;;13.46;53.99;95629.90;110060;1245;59702;-68
2023/01/17 12:28:21;;;;;;;3.50;2.30;;;;;;;12.97;54.86;95633.45;109973;1245;70551;-70
2023/01/17 12:30:56;;;;;;;2.20;1.80;;;;;;;11.88;56.57;95659.30;109453;1244;69147;-71
2023/01/17 12:33:31;;;;;;;2.60;1.90;;;;;;;11.15;58.09;95662.91;109863;1243;70215;-74
2023/01/17 12:36:07;;;;;;;2.70;2.00;;;;;;;10.51;60.57;95658.78;109788;1244;59770;-71
2023/01/17 12:38:38;;;;;;;3.90;2.70;;;;;;;10.10;62.66;95669.60;109973;1243;59744;-72
2023/01/17 12:41:23;;;;;;;5.40;3.30;;;;;;;9.91;64.63;95668.66;109906;1245;72149;-73
2023/01/17 12:43:57;;;;;;;4.50;3.20;;;;;;;9.75;65.57;95663.78;110030;1244;69257;-72
2023/01/17 12:46:37;;;;;;;5.30;3.90;;;;;;;9.82;65.75;95657.92;109823;1242;69697;-72
2023/01/17 12:49:27;;;;;;;4.40;3.10;;;;;;;10.44;64.96;95663.27;109837;1246;59761;-71
2023/01/17 12:52:10;;;;;;;6.70;3.00;;;;;;;11.56;61.22;95654.17;109761;1244;59673;-71
2023/01/17 12:54:49;;;;;;;4.10;3.00;;;;;;;12.95;60.03;95635.20;109857;1244;71391;-72
2023/01/17 12:57:24;;;;;;;4.80;3.10;;;;;;;14.28;56.00;95631.56;109951;1243;68336;-73
2023/01/17 12:59:59;;;;;;;3.30;2.60;;;;;;;15.30;53.06;95635.84;109912;1244;69820;-71
2023/01/17 13:02:32;;;;;;;2.80;2.10;;;;;;;15.19;51.37;95635.10;109829;1244;59775;-72
2023/01/17 13:05:24;;;;;;;3.30;2.00;;;;;;;15.25;49.71;95626.83;110068;1245;59701;-73
2023/01/17 13:08:05;;;;;;;2.90;1.90;;;;;;;15.60;48.60;95634.65;109965;1244;71844;-74
2023/01/17 13:10:37;;;;;;;3.40;2.10;;;;;;;15.72;48.05;95639.97;109938;1245;68402;-71
2023/01/17 13:13:22;;;;;;;4.20;2.50;;;;;;;16.15;47.71;95636.59;109907;1243;69861;-72
2023/01/17 13:15:56;;;;;;;2.80;1.60;;;;;;;16.69;45.95;95632.92;109953;1244;59750;-72
2023/01/17 13:18:28;;;;;;;3.90;2.10;;;;;;;16.87;45.01;95639.60;109961;1244;59751;-71
2023/01/17 13:21:21;;;;;;;2.80;2.10;;;;;;;16.82;43.92;95645.16;110052;1245;71321;-72
2023/01/17 13:23:57;;;;;;;3.20;2.20;;;;;;;16.46;43.39;95652.75;110019;1244;68801;-75